Time;durP1;ratioP1;P1;durP2;ratioP2;P2;SDS_P1;SDS_P2;PMS_P1;PMS_P2;Temp;Humidity;BMP_temperature;BMP_pressure;BME280_temperature;BME280_humidity;BME280_pressure;Samples;Min_cycle;Max_cycle;Signal;HPM_P1;HPM_P2
2024/04/03 00:00:55;;;;;;;0.60;0.40;;;;;;;18.17;35.41;100917.59;106831;1271;25458;-56
2024/04/03 00:03:22;;;;;;;1.00;0.60;;;;;;;18.11;35.63;100921.95;107137;1259;25334;-57
2024/04/03 00:05:49;;;;;;;0.40;0.30;;;;;;;18.07;35.83;100929.86;107199;1259;25431;-56
2024/04/03 00:08:16;;;;;;;0.50;0.30;;;;;;;18.02;35.90;100933.95;107200;1257;22543;-56
2024/04/03 00:10:43;;;;;;;0.40;0.40;;;;;;;17.96;36.12;100939.38;107067;1271;25331;-57
2024/04/03 00:13:10;;;;;;;0.40;0.30;;;;;;;17.78;36.37;100934.43;106861;1268;25344;-57
2024/04/03 00:15:38;;;;;;;0.40;0.10;;;;;;;17.75;36.38;100929.17;106626;1259;25388;-56
2024/04/03 00:18:05;;;;;;;1.60;0.40;;;;;;;17.73;36.44;100923.30;106929;1267;25428;-56
2024/04/03 00:20:32;;;;;;;0.20;0.20;;;;;;;17.62;36.68;100913.98;106239;1267;1003640;-56
2024/04/03 00:22:59;;;;;;;0.20;0.20;;;;;;;17.66;36.60;100913.63;106933;1266;25431;-57
2024/04/03 00:25:26;;;;;;;1.40;0.50;;;;;;;17.68;36.55;100913.20;107031;1259;25386;-57
2024/04/03 00:27:53;;;;;;;2.20;0.40;;;;;;;17.63;36.47;100911.83;106870;1267;25355;-57
2024/04/03 00:30:19;;;;;;;0.70;0.50;;;;;;;17.59;36.46;100921.33;106816;1268;25352;-57
2024/04/03 00:32:46;;;;;;;0.80;0.50;;;;;;;17.55;36.71;100923.27;107079;1256;22787;-57
2024/04/03 00:35:13;;;;;;;0.80;0.50;;;;;;;17.51;36.60;100927.15;106717;1259;25354;-57
2024/04/03 00:37:40;;;;;;;0.40;0.30;;;;;;;17.49;36.73;100934.81;106818;1267;25331;-56
2024/04/03 00:40:08;;;;;;;0.40;0.40;;;;;;;17.47;36.97;100950.49;107129;1256;25355;-56
2024/04/03 00:42:35;;;;;;;0.40;0.30;;;;;;;17.42;37.06;100949.83;107186;1272;25943;-56
2024/04/03 00:45:02;;;;;;;0.20;0.10;;;;;;;17.38;37.15;100950.91;107193;1270;25377;-56
2024/04/03 00:47:29;;;;;;;0.20;0.20;;;;;;;17.34;37.02;100959.52;107023;1266;25430;-56
2024/04/03 00:49:56;;;;;;;0.20;0.20;;;;;;;17.29;37.02;100970.08;107089;1266;25360;-56
2024/04/03 00:52:23;;;;;;;0.40;0.30;;;;;;;17.08;37.22;100971.26;106889;1266;25428;-56
2024/04/03 00:54:50;;;;;;;0.40;0.20;;;;;;;17.01;37.49;100966.30;107143;1268;25451;-57
2024/04/03 00:57:17;;;;;;;0.50;0.20;;;;;;;17.02;37.45;100966.57;106922;1260;25338;-56
2024/04/03 00:59:44;;;;;;;0.40;0.20;;;;;;;17.08;37.27;100968.41;106786;1269;25344;-56
2024/04/03 01:02:12;;;;;;;0.10;0.10;;;;;;;17.06;37.26;100974.29;106455;1268;23230;-56
2024/04/03 01:04:38;;;;;;;0.20;0.20;;;;;;;17.04;37.27;100980.89;106732;1260;22541;-56
2024/04/03 01:07:09;;;;;;;0.90;0.20;;;;;;;17.01;37.34;100982.05;106876;1266;25500;-56
2024/04/03 01:09:36;;;;;;;0.20;0.20;;;;;;;16.97;37.45;100983.81;106866;1267;25357;-55
2024/04/03 01:12:04;;;;;;;0.90;0.30;;;;;;;16.95;37.58;100996.00;106955;1267;25428;-56
2024/04/03 01:14:31;;;;;;;0.20;0.20;;;;;;;16.91;37.75;100998.63;106853;1257;22652;-57
2024/04/03 01:16:58;;;;;;;0.30;0.20;;;;;;;16.89;37.56;100998.55;106844;1261;22527;-56
2024/04/03 01:19:25;;;;;;;0.40;0.20;;;;;;;16.85;37.53;101002.04;106775;1266;25351;-56
2024/04/03 01:21:52;;;;;;;0.20;0.20;;;;;;;16.82;37.61;101003.60;106832;1268;25347;-57
2024/04/03 01:24:22;;;;;;;1.10;0.10;;;;;;;16.79;37.68;101011.77;106819;1269;25423;-57
2024/04/03 01:26:49;;;;;;;0.30;0.30;;;;;;;16.76;37.78;101011.21;106035;1259;1002770;-57
2024/04/03 01:29:16;;;;;;;0.60;0.20;;;;;;;16.73;37.76;101011.34;106785;1271;25347;-57
2024/04/03 01:31:43;;;;;;;0.20;0.20;;;;;;;16.69;37.85;101015.36;106671;1268;25476;-57
2024/04/03 01:34:10;;;;;;;0.10;0.10;;;;;;;16.66;37.89;101015.16;106803;1260;25432;-56
2024/04/03 01:36:37;;;;;;;1.30;0.10;;;;;;;16.63;37.98;101014.42;106798;1267;25373;-57
2024/04/03 01:39:04;;;;;;;0.20;0.20;;;;;;;16.58;38.04;101010.60;106848;1273;25377;-57
2024/04/03 01:41:31;;;;;;;0.20;0.20;;;;;;;16.54;38.14;101011.63;106778;1265;25333;-57
2024/04/03 01:43:58;;;;;;;0.10;0.10;;;;;;;16.50;38.17;101013.04;106700;1273;25353;-57
2024/04/03 01:46:24;;;;;;;0.20;0.20;;;;;;;16.45;38.25;101013.05;106711;1269;25409;-56
2024/04/03 01:48:51;;;;;;;0.10;0.10;;;;;;;16.42;38.34;101015.25;106009;1270;1002857;-56
2024/04/03 01:51:18;;;;;;;0.10;0.10;;;;;;;16.38;38.39;101015.61;106984;1267;25366;-56
2024/04/03 01:53:45;;;;;;;0.20;0.20;;;;;;;16.32;38.46;101018.48;107151;1251;24237;-57
2024/04/03 01:56:12;;;;;;;0.80;0.20;;;;;;;16.26;38.61;101014.70;107138;1268;22530;-57
2024/04/03 01:58:39;;;;;;;0.30;0.20;;;;;;;16.22;38.63;101017.64;107183;1257;25344;-57
2024/04/03 02:01:06;;;;;;;0.10;0.10;;;;;;;16.18;38.74;101019.77;107216;1256;23049;-57
2024/04/03 02:03:33;;;;;;;0.30;0.20;;;;;;;16.11;38.79;101017.60;107043;1265;25369;-56
2024/04/03 02:06:00;;;;;;;0.40;0.20;;;;;;;15.97;39.13;101021.67;107157;1267;25501;-57
2024/04/03 02:08:28;;;;;;;0.20;0.20;;;;;;;15.98;39.29;101028.10;107154;1257;25356;-57
2024/04/03 02:10:55;;;;;;;0.50;0.20;;;;;;;15.97;39.32;101030.08;106855;1257;22529;-57
2024/04/03 02:13:22;;;;;;;0.10;0.10;;;;;;;15.91;39.35;101028.71;106599;1267;25392;-57
2024/04/03 02:15:53;;;;;;;0.70;0.30;;;;;;;15.86;39.47;101024.36;106260;1266;1003040;-58
2024/04/03 02:18:20;;;;;;;0.20;0.20;;;;;;;15.79;39.57;101031.65;107134;1258;22538;-56
2024/04/03 02:20:47;;;;;;;0.30;0.20;;;;;;;15.76;39.63;101028.98;106890;1273;25333;-57
2024/04/03 02:23:14;;;;;;;0.20;0.20;;;;;;;15.71;39.72;101026.20;107180;1262;25439;-57
2024/04/03 02:25:44;;;;;;;1.00;0.50;;;;;;;15.67;39.87;101027.91;107175;1267;25341;-57
2024/04/03 02:28:11;;;;;;;1.80;0.20;;;;;;;15.63;39.78;101032.27;107069;1256;25421;-56
2024/04/03 02:30:38;;;;;;;0.20;0.20;;;;;;;15.58;39.77;101031.41;107167;1266;25355;-56
2024/04/03 02:33:06;;;;;;;0.50;0.20;;;;;;;15.54;39.74;101029.48;106114;1265;1003569;-56
2024/04/03 02:35:33;;;;;;;0.10;0.10;;;;;;;15.50;39.77;101024.73;107067;1261;25352;-56
2024/04/03 02:38:00;;;;;;;0.20;0.20;;;;;;;15.47;39.65;101030.11;107028;1257;25341;-56
2024/04/03 02:40:27;;;;;;;1.30;0.10;;;;;;;15.43;39.62;101031.46;106290;1272;1016834;-56
2024/04/03 02:42:54;;;;;;;0.30;0.30;;;;;;;15.41;39.62;101030.11;107146;1268;25341;-56
2024/04/03 02:45:21;;;;;;;0.40;0.20;;;;;;;15.37;39.76;101041.78;107106;1257;25424;-57
2024/04/03 02:47:47;;;;;;;1.40;0.20;;;;;;;15.36;39.79;101054.59;107077;1265;25351;-57
2024/04/03 02:50:14;;;;;;;0.50;0.20;;;;;;;15.34;39.88;101054.32;107194;1256;22524;-56
2024/04/03 02:52:42;;;;;;;0.90;0.40;;;;;;;15.31;39.99;101054.44;107099;1257;25418;-57
2024/04/03 02:55:08;;;;;;;0.70;0.20;;;;;;;15.29;40.11;101057.30;106430;1267;1003479;-57
2024/04/03 02:57:35;;;;;;;0.10;0.10;;;;;;;15.26;40.13;101064.94;107103;1254;25420;-56
2024/04/03 03:00:03;;;;;;;2.60;0.30;;;;;;;15.22;40.10;101070.31;106848;1267;25365;-56
2024/04/03 03:02:31;;;;;;;0.30;0.20;;;;;;;15.20;40.08;101079.14;107033;1257;25491;-57
2024/04/03 03:04:58;;;;;;;2.20;0.30;;;;;;;15.18;40.08;101082.88;107111;1257;25369;-57
2024/04/03 03:07:24;;;;;;;1.70;0.40;;;;;;;15.16;40.00;101087.48;107104;1257;25379;-56
2024/04/03 03:09:51;;;;;;;0.40;0.30;;;;;;;15.15;40.04;101090.50;107076;1253;25511;-56
2024/04/03 03:12:18;;;;;;;0.40;0.30;;;;;;;15.12;40.05;101089.72;107085;1256;25368;-57
2024/04/03 03:14:45;;;;;;;0.90;0.30;;;;;;;15.10;40.10;101095.37;107109;1258;25369;-56
2024/04/03 03:17:13;;;;;;;0.10;0.10;;;;;;;15.07;40.15;101094.61;106880;1273;25493;-56
2024/04/03 03:19:39;;;;;;;1.00;0.30;;;;;;;15.06;40.14;101092.90;107123;1258;25369;-56
2024/04/03 03:22:06;;;;;;;0.20;0.20;;;;;;;15.02;40.39;101090.39;106371;1266;1003032;-56
2024/04/03 03:24:33;;;;;;;1.60;0.30;;;;;;;14.99;40.46;101090.03;106990;1258;23893;-57
2024/04/03 03:27:00;;;;;;;0.70;0.20;;;;;;;14.94;40.66;101093.85;106823;1261;24330;-56
2024/04/03 03:29:27;;;;;;;0.20;0.20;;;;;;;14.91;40.74;101092.38;106938;1257;25379;-57
2024/04/03 03:31:54;;;;;;;0.50;0.40;;;;;;;14.90;40.85;101091.36;106933;1262;22539;-56
2024/04/03 03:34:21;;;;;;;0.60;0.30;;;;;;;14.90;40.97;101094.00;106799;1258;25500;-56
2024/04/03 03:36:48;;;;;;;0.30;0.20;;;;;;;14.90;41.01;101099.93;106415;1257;25363;-56
2024/04/03 03:39:15;;;;;;;0.20;0.20;;;;;;;14.90;41.04;101101.52;106549;1270;25382;-56
2024/04/03 03:41:42;;;;;;;0.60;0.30;;;;;;;14.90;41.06;101106.73;106901;1261;25501;-56
2024/04/03 03:44:09;;;;;;;0.40;0.30;;;;;;;14.91;41.04;101109.69;107129;1265;25369;-55
2024/04/03 03:46:36;;;;;;;0.20;0.20;;;;;;;14.90;41.05;101109.72;106939;1267;25501;-56
2024/04/03 03:54:35;;;;;;;0.30;0.20;;;;;;;14.86;40.89;101114.41;107088;1258;25431;-57
2024/04/03 03:57:01;;;;;;;3.60;0.30;;;;;;;14.83;40.97;101117.81;107185;1264;23886;-57
2024/04/03 03:59:28;;;;;;;0.30;0.30;;;;;;;14.79;40.85;101117.58;106719;1263;25431;-57
2024/04/03 04:01:56;;;;;;;0.20;0.20;;;;;;;14.76;40.98;101119.95;107029;1260;25428;-57
2024/04/03 04:04:23;;;;;;;0.30;0.30;;;;;;;14.80;40.87;101123.13;107056;1261;27112;-56
2024/04/03 04:06:49;;;;;;;1.00;0.30;;;;;;;14.99;40.42;101120.59;107124;1260;25341;-56
2024/04/03 04:09:16;;;;;;;1.20;0.50;;;;;;;14.99;40.44;101125.64;106725;1275;25421;-56
2024/04/03 04:11:44;;;;;;;1.20;0.40;;;;;;;14.96;40.47;101130.98;106998;1258;25358;-57
2024/04/03 04:14:12;;;;;;;0.20;0.20;;;;;;;14.93;40.51;101127.09;106794;1267;25421;-57
2024/04/03 04:16:38;;;;;;;0.30;0.30;;;;;;;14.91;40.45;101130.81;106950;1265;26528;-57
2024/04/03 04:19:06;;;;;;;0.50;0.30;;;;;;;14.90;40.57;101131.70;107086;1256;22648;-56
2024/04/03 04:21:33;;;;;;;0.70;0.40;;;;;;;14.91;40.58;101133.43;107072;1255;25380;-56
2024/04/03 04:24:04;;;;;;;0.30;0.30;;;;;;;14.92;40.68;101136.02;107135;1251;25354;-56
2024/04/03 04:26:31;;;;;;;0.80;0.50;;;;;;;14.93;40.76;101137.89;107058;1269;25428;-56
2024/04/03 04:28:58;;;;;;;1.50;0.20;;;;;;;14.96;40.80;101138.86;107194;1264;25369;-55
2024/04/03 04:31:25;;;;;;;0.60;0.30;;;;;;;14.98;40.86;101144.73;107021;1258;25369;-56
2024/04/03 04:33:52;;;;;;;0.30;0.30;;;;;;;15.01;40.88;101145.16;107174;1257;25392;-56
2024/04/03 04:36:21;;;;;;;0.30;0.30;;;;;;;15.04;41.01;101146.80;107052;1254;25362;-57
2024/04/03 04:38:48;;;;;;;0.20;0.20;;;;;;;15.06;41.02;101150.19;107063;1254;25249;-56
2024/04/03 04:41:16;;;;;;;0.60;0.30;;;;;;;15.09;40.98;101152.54;107100;1252;25417;-56
2024/04/03 04:43:43;;;;;;;0.30;0.30;;;;;;;15.12;40.95;101154.20;106324;1262;1003706;-56
2024/04/03 04:46:10;;;;;;;0.90;0.30;;;;;;;15.16;40.86;101160.02;107191;1254;25488;-56
2024/04/03 04:48:37;;;;;;;0.30;0.30;;;;;;;15.18;40.88;101159.58;106935;1257;25478;-55
2024/04/03 04:51:05;;;;;;;0.30;0.30;;;;;;;15.20;40.86;101160.38;106839;1272;25435;-57
2024/04/03 04:53:32;;;;;;;0.60;0.30;;;;;;;15.24;40.96;101164.45;106624;1264;22630;-55
2024/04/03 04:56:03;;;;;;;1.40;0.20;;;;;;;15.29;40.94;101163.41;106958;1257;25430;-56
2024/04/03 04:58:31;;;;;;;1.00;0.30;;;;;;;15.34;41.08;101166.52;106981;1251;25445;-56
2024/04/03 05:01:02;;;;;;;0.40;0.30;;;;;;;15.40;40.95;101166.33;106903;1256;25471;-56
2024/04/03 05:03:29;;;;;;;0.30;0.30;;;;;;;15.47;41.03;101172.23;106968;1255;25469;-57
2024/04/03 05:05:57;;;;;;;0.80;0.30;;;;;;;15.54;40.94;101170.78;106910;1260;25385;-56
2024/04/03 05:08:24;;;;;;;0.30;0.30;;;;;;;15.63;40.92;101177.80;107032;1251;25341;-56
2024/04/03 05:10:57;;;;;;;2.00;0.30;;;;;;;15.69;40.76;101175.65;106955;1257;25352;-56
2024/04/03 05:13:27;;;;;;;5.70;0.30;;;;;;;15.75;40.55;101184.49;106823;1258;25427;-56
2024/04/03 05:15:54;;;;;;;0.20;0.20;;;;;;;15.81;40.56;101186.75;106770;1257;25351;-57
2024/04/03 05:18:21;;;;;;;0.20;0.20;;;;;;;15.85;40.46;101186.58;107159;1261;25417;-56
2024/04/03 05:20:48;;;;;;;0.10;0.10;;;;;;;15.91;40.44;101191.43;106899;1261;25454;-57
2024/04/03 05:23:15;;;;;;;0.20;0.20;;;;;;;15.98;40.38;101194.67;106854;1261;25383;-56
2024/04/03 05:25:43;;;;;;;0.20;0.20;;;;;;;16.03;40.30;101193.26;107120;1257;25371;-57
2024/04/03 05:28:10;;;;;;;0.90;0.40;;;;;;;16.08;40.20;101197.44;106215;1258;1002826;-57
2024/04/03 05:30:37;;;;;;;1.70;0.30;;;;;;;16.13;40.26;101196.90;106924;1255;25345;-56
2024/04/03 05:33:07;;;;;;;0.10;0.10;;;;;;;16.19;40.38;101202.45;106331;1256;1003382;-57
2024/04/03 05:35:34;;;;;;;2.70;0.40;;;;;;;16.27;40.28;101200.05;106946;1269;25411;-56
2024/04/03 05:38:02;;;;;;;0.20;0.20;;;;;;;16.35;40.55;101199.77;106817;1269;25571;-56
2024/04/03 05:40:29;;;;;;;0.40;0.20;;;;;;;16.44;40.67;101199.94;106764;1270;25409;-58
2024/04/03 05:42:56;;;;;;;0.40;0.40;;;;;;;16.52;40.84;101202.95;106936;1267;25320;-57
2024/04/03 05:45:23;;;;;;;0.60;0.30;;;;;;;16.62;40.68;101205.05;106547;1267;22664;-57
2024/04/03 05:47:51;;;;;;;0.40;0.20;;;;;;;16.71;40.61;101204.63;106830;1267;25549;-57
2024/04/03 05:50:18;;;;;;;1.50;0.50;;;;;;;16.82;40.55;101211.04;106862;1267;25957;-57
2024/04/03 05:52:45;;;;;;;3.10;0.80;;;;;;;16.98;40.31;101205.67;106801;1264;25381;-57
2024/04/03 05:55:14;;;;;;;0.50;0.30;;;;;;;17.23;39.90;101211.80;106990;1267;25532;-57
2024/04/03 05:57:42;;;;;;;1.20;0.30;;;;;;;17.57;39.45;101208.94;107074;1268;25501;-57
2024/04/03 06:00:12;;;;;;;0.70;0.40;;;;;;;17.96;38.95;101217.77;107158;1267;25417;-58
2024/04/03 06:02:40;;;;;;;0.40;0.30;;;;;;;18.38;38.41;101217.23;106993;1258;22772;-57
2024/04/03 06:05:07;;;;;;;0.20;0.20;;;;;;;18.82;37.71;101216.52;107085;1257;25331;-58
2024/04/03 06:07:35;;;;;;;0.60;0.40;;;;;;;19.32;36.89;101215.95;107124;1266;25412;-58
2024/04/03 06:10:04;;;;;;;0.90;0.50;;;;;;;19.86;36.56;101222.70;106770;1273;25359;-58
2024/04/03 06:12:32;;;;;;;0.40;0.30;;;;;;;20.39;35.59;101230.40;106928;1269;24236;-58
2024/04/03 06:14:59;;;;;;;1.30;0.50;;;;;;;21.11;34.27;101224.54;107119;1267;25384;-58
2024/04/03 06:17:26;;;;;;;0.50;0.30;;;;;;;21.82;33.27;101225.45;107096;1267;23869;-58
2024/04/03 06:19:53;;;;;;;0.90;0.50;;;;;;;22.45;32.30;101229.45;106162;1274;1002971;-57
2024/04/03 06:22:20;;;;;;;1.70;0.30;;;;;;;23.00;31.28;101228.69;106931;1267;25492;-57
2024/04/03 06:24:47;;;;;;;2.00;0.40;;;;;;;23.35;30.69;101230.76;106938;1267;25404;-57
2024/04/03 06:27:14;;;;;;;1.30;0.30;;;;;;;23.60;30.18;101235.77;106817;1267;25501;-57
2024/04/03 06:29:42;;;;;;;1.10;0.40;;;;;;;23.76;29.34;101241.25;106523;1267;25453;-57
2024/04/03 06:32:09;;;;;;;2.40;0.70;;;;;;;23.89;29.42;101239.45;106951;1267;25369;-57
2024/04/03 06:34:36;;;;;;;1.40;0.40;;;;;;;24.16;29.08;101240.55;107021;1267;25344;-58
2024/04/03 06:37:04;;;;;;;0.70;0.40;;;;;;;24.35;28.85;101240.68;107088;1267;25396;-57
2024/04/03 06:39:31;;;;;;;0.30;0.30;;;;;;;24.32;29.07;101244.20;107081;1266;25313;-57
2024/04/03 06:42:00;;;;;;;0.50;0.40;;;;;;;24.29;28.79;101247.17;107135;1267;25380;-58
2024/04/03 06:44:27;;;;;;;0.50;0.40;;;;;;;24.39;28.43;101245.36;106871;1267;25193;-58
2024/04/03 06:47:00;;;;;;;0.70;0.50;;;;;;;24.40;28.40;101246.17;106888;1267;22645;-57
2024/04/03 06:49:29;;;;;;;0.60;0.40;;;;;;;24.35;28.44;101243.16;107118;1256;25481;-57
2024/04/03 06:51:56;;;;;;;0.60;0.40;;;;;;;24.29;28.45;101247.45;106943;1267;25413;-58
2024/04/03 06:54:23;;;;;;;2.70;0.50;;;;;;;24.23;28.79;101245.16;107135;1267;24195;-58
2024/04/03 06:56:50;;;;;;;0.50;0.50;;;;;;;24.21;28.75;101247.65;106878;1260;22714;-58
2024/04/03 06:59:17;;;;;;;1.10;0.40;;;;;;;24.29;28.45;101250.33;107010;1257;25428;-58
2024/04/03 07:01:45;;;;;;;3.10;0.70;;;;;;;24.35;28.21;101246.48;107167;1267;25351;-58
2024/04/03 07:04:12;;;;;;;0.90;0.30;;;;;;;24.39;28.32;101247.30;106977;1268;25379;-58
2024/04/03 07:06:39;;;;;;;0.30;0.30;;;;;;;24.38;28.11;101245.25;106859;1268;25539;-58
2024/04/03 07:09:07;;;;;;;0.70;0.30;;;;;;;24.47;28.21;101245.08;107124;1267;25403;-57
2024/04/03 07:11:34;;;;;;;0.20;0.20;;;;;;;24.62;28.32;101241.55;107135;1267;24015;-57
2024/04/03 07:14:02;;;;;;;2.00;0.40;;;;;;;24.81;27.95;101243.14;107088;1267;25373;-57
2024/04/03 07:16:29;;;;;;;0.50;0.30;;;;;;;25.03;27.69;101240.29;107019;1267;25469;-58
2024/04/03 07:18:56;;;;;;;0.90;0.30;;;;;;;25.24;27.56;101238.54;107115;1271;25349;-57
2024/04/03 07:21:23;;;;;;;0.60;0.40;;;;;;;25.43;27.23;101243.77;107144;1267;25484;-57
2024/04/03 07:23:54;;;;;;;0.50;0.40;;;;;;;25.61;27.30;101246.14;107008;1269;25409;-57
2024/04/03 07:26:23;;;;;;;0.30;0.30;;;;;;;25.80;27.09;101244.36;106997;1271;25424;-58
2024/04/03 07:28:50;;;;;;;0.90;0.50;;;;;;;25.95;27.06;101241.55;107101;1266;25383;-58
2024/04/03 07:31:17;;;;;;;0.60;0.40;;;;;;;26.09;26.55;101240.33;107026;1267;25459;-58
2024/04/03 07:33:44;;;;;;;0.30;0.30;;;;;;;26.15;26.30;101238.41;106722;1264;25369;-58
2024/04/03 07:36:11;;;;;;;0.30;0.30;;;;;;;26.11;25.91;101242.28;106979;1272;25546;-58
2024/04/03 07:38:38;;;;;;;0.20;0.20;;;;;;;25.85;26.08;101242.35;107186;1267;25407;-58
2024/04/03 07:41:05;;;;;;;0.30;0.30;;;;;;;25.77;26.08;101245.80;106806;1269;25429;-57
2024/04/03 07:43:33;;;;;;;1.80;0.30;;;;;;;25.59;26.14;101246.11;104480;1267;1003857;-57
2024/04/03 07:46:00;;;;;;;0.80;0.30;;;;;;;25.37;26.21;101245.52;107103;1267;25379;-57
2024/04/03 07:48:27;;;;;;;1.60;0.40;;;;;;;25.14;26.65;101243.53;107073;1267;22539;-58
2024/04/03 07:51:01;;;;;;;0.40;0.30;;;;;;;24.96;26.92;101244.55;106828;1274;25390;-57
2024/04/03 07:53:28;;;;;;;0.80;0.50;;;;;;;24.78;26.87;101248.13;107172;1269;25465;-56
2024/04/03 07:55:55;;;;;;;1.00;0.60;;;;;;;24.64;27.01;101247.40;107052;1267;25490;-56
2024/04/03 07:58:22;;;;;;;0.90;0.70;;;;;;;24.51;27.00;101248.94;106868;1267;26503;-57
2024/04/03 08:00:59;;;;;;;1.30;0.60;;;;;;;24.51;27.07;101248.16;107090;1267;22528;-56
2024/04/03 08:03:26;;;;;;;0.40;0.30;;;;;;;24.46;27.23;101249.78;107118;1267;24212;-57
2024/04/03 08:06:00;;;;;;;0.30;0.30;;;;;;;24.38;27.60;101252.32;107035;1267;25355;-57
2024/04/03 08:08:28;;;;;;;0.50;0.30;;;;;;;24.32;27.59;101252.37;107053;1267;24219;-57
2024/04/03 08:11:00;;;;;;;0.40;0.40;;;;;;;24.26;27.32;101249.98;107122;1267;25406;-57
2024/04/03 08:13:27;;;;;;;;;;;;;;;24.18;27.47;101252.27;107197;1266;25308;-57
2024/04/03 08:16:01;;;;;;;0.50;0.30;;;;;;;24.08;27.31;101251.41;107127;1266;25341;-57
2024/04/03 08:18:29;;;;;;;0.40;0.40;;;;;;;24.01;27.54;101244.30;107106;1266;24549;-57
2024/04/03 08:21:03;;;;;;;0.40;0.40;;;;;;;24.07;27.62;101247.05;107138;1268;23924;-57
2024/04/03 08:23:31;;;;;;;0.30;0.30;;;;;;;24.07;27.52;101252.88;106961;1270;22795;-57
2024/04/03 08:26:06;;;;;;;0.50;0.40;;;;;;;24.07;27.55;101249.91;106893;1270;22538;-57
2024/04/03 08:28:39;;;;;;;0.50;0.30;;;;;;;24.04;27.42;101243.39;107116;1267;25396;-57
2024/04/03 08:31:13;;;;;;;0.90;0.30;;;;;;;24.05;27.64;101245.05;106825;1251;22531;-57
2024/04/03 08:33:41;;;;;;;1.60;0.30;;;;;;;24.06;27.40;101245.70;106866;1267;22532;-57
2024/04/03 08:36:10;;;;;;;0.50;0.20;;;;;;;24.07;27.06;101250.45;106928;1268;25412;-57
2024/04/03 08:38:38;;;;;;;0.60;0.50;;;;;;;24.07;26.73;101249.56;107086;1267;25492;-57
2024/04/03 08:41:05;;;;;;;0.90;0.40;;;;;;;24.07;26.93;101248.88;107160;1266;25445;-57
2024/04/03 08:43:35;;;;;;;1.00;0.30;;;;;;;24.07;27.34;101250.77;107144;1267;25425;-57
2024/04/03 08:46:04;;;;;;;0.40;0.30;;;;;;;24.08;27.38;101248.39;107139;1266;25404;-58
2024/04/03 08:48:31;;;;;;;0.30;0.20;;;;;;;24.10;27.08;101252.31;107031;1267;25374;-58
2024/04/03 08:50:58;;;;;;;0.60;0.30;;;;;;;24.11;26.96;101251.52;106814;1273;22550;-57
2024/04/03 08:53:25;;;;;;;0.10;0.10;;;;;;;24.15;27.09;101252.15;106853;1271;25352;-57
2024/04/03 08:55:54;;;;;;;0.30;0.20;;;;;;;24.18;26.62;101253.54;106862;1265;25525;-57
2024/04/03 08:58:21;;;;;;;1.90;0.30;;;;;;;24.20;26.86;101255.48;106888;1267;25443;-57
2024/04/03 09:00:48;;;;;;;0.20;0.20;;;;;;;24.24;26.94;101256.46;107133;1267;23032;-57
2024/04/03 09:03:16;;;;;;;0.60;0.30;;;;;;;24.30;26.90;101259.14;107039;1267;23170;-57
2024/04/03 09:05:43;;;;;;;0.50;0.20;;;;;;;24.35;26.75;101256.97;107000;1270;22541;-57
2024/04/03 09:08:10;;;;;;;1.00;0.30;;;;;;;24.40;26.48;101266.04;106841;1255;25525;-57
2024/04/03 09:11:01;;;;;;;0.40;0.30;;;;;;;24.45;26.40;101260.67;107120;1267;25397;-57
2024/04/03 09:13:27;;;;;;;3.20;0.30;;;;;;;24.51;26.39;101258.29;107094;1268;25417;-57
2024/04/03 09:15:54;;;;;;;0.50;0.30;;;;;;;24.54;26.40;101255.20;106584;1267;25354;-57
2024/04/03 09:18:21;;;;;;;1.10;0.40;;;;;;;24.57;26.86;101255.17;106750;1267;25370;-57
2024/04/03 09:20:52;;;;;;;0.70;0.30;;;;;;;24.57;26.64;101254.12;107034;1267;25364;-57
2024/04/03 09:23:20;;;;;;;1.00;0.30;;;;;;;24.58;27.48;101260.79;107072;1267;25343;-57
2024/04/03 09:25:48;;;;;;;1.40;0.40;;;;;;;24.57;29.12;101260.00;107026;1267;22528;-58
2024/04/03 09:28:15;;;;;;;1.00;0.50;;;;;;;24.48;29.85;101264.17;107067;1267;25428;-56
2024/04/03 09:30:47;;;;;;;1.70;0.70;;;;;;;24.32;30.43;101255.80;106929;1267;25413;-59
2024/04/03 09:33:14;;;;;;;3.40;0.50;;;;;;;24.10;30.82;101255.34;107068;1268;25297;-57
2024/04/03 09:35:42;;;;;;;0.70;0.60;;;;;;;23.90;31.05;101255.50;107175;1267;25399;-57
2024/04/03 09:38:14;;;;;;;1.00;0.60;;;;;;;23.69;31.29;101255.55;106887;1272;24375;-56
2024/04/03 09:40:41;;;;;;;2.80;0.70;;;;;;;23.49;31.89;101257.29;107119;1266;22999;-56
2024/04/03 09:43:11;;;;;;;2.40;0.70;;;;;;;23.31;32.96;101260.98;106990;1266;25414;-57
2024/04/03 09:45:38;;;;;;;2.50;0.60;;;;;;;23.17;33.39;101263.81;107021;1267;22542;-58
2024/04/03 09:48:09;;;;;;;1.30;0.50;;;;;;;23.00;33.68;101263.91;107160;1272;25477;-56
2024/04/03 09:50:42;;;;;;;1.40;0.50;;;;;;;22.83;34.37;101261.65;107083;1268;25379;-56
2024/04/03 09:53:14;;;;;;;1.40;0.60;;;;;;;22.73;35.05;101264.61;106933;1268;25379;-56
2024/04/03 09:55:42;;;;;;;3.50;1.00;;;;;;;22.69;35.34;101267.75;106862;1267;22523;-56
2024/04/03 09:58:13;;;;;;;3.40;0.60;;;;;;;22.64;35.27;101272.41;106857;1267;25831;-57
2024/04/03 10:00:49;;;;;;;2.30;0.70;;;;;;;22.60;35.89;101273.41;106885;1267;25428;-57
2024/04/03 10:03:29;;;;;;;2.20;0.60;;;;;;;22.54;36.54;101276.73;107120;1267;23300;-57
2024/04/03 10:06:09;;;;;;;1.70;0.50;;;;;;;22.50;36.91;101278.02;107103;1267;25379;-57
2024/04/03 10:08:41;;;;;;;2.10;1.00;;;;;;;22.49;37.05;101272.48;106801;1267;25417;-57
2024/04/03 10:11:09;;;;;;;;;;;;;;;22.36;37.38;101271.55;106772;1271;22508;-59
2024/04/03 10:13:39;;;;;;;1.50;0.80;;;;;;;22.25;37.38;101261.62;107065;1267;25365;-57
2024/04/03 10:16:13;;;;;;;3.10;1.00;;;;;;;22.45;36.63;101254.31;106903;1267;22590;-57
2024/04/03 10:18:51;;;;;;;1.60;0.80;;;;;;;22.53;36.22;101255.42;107122;1267;25406;-57
2024/04/03 10:21:19;;;;;;;1.30;0.60;;;;;;;22.57;36.05;101256.77;107150;1266;25344;-57
2024/04/03 10:23:47;;;;;;;1.50;0.60;;;;;;;22.60;35.95;101257.31;107200;1268;25361;-56
2024/04/03 10:26:16;;;;;;;2.60;0.70;;;;;;;22.63;35.95;101259.94;107184;1268;24264;-57
2024/04/03 10:28:45;;;;;;;1.00;0.50;;;;;;;22.68;35.83;101262.46;107141;1268;22579;-56
2024/04/03 10:31:19;;;;;;;2.90;0.60;;;;;;;22.71;35.78;101259.83;107235;1267;25488;-57
2024/04/03 10:33:50;;;;;;;0.90;0.40;;;;;;;22.72;35.98;101258.30;107067;1267;23800;-57
2024/04/03 10:36:17;;;;;;;1.70;0.60;;;;;;;22.75;35.67;101260.81;107107;1274;25431;-57
2024/04/03 10:38:45;;;;;;;1.20;0.60;;;;;;;22.75;35.73;101256.20;107168;1267;25379;-57
2024/04/03 10:41:12;;;;;;;2.90;1.00;;;;;;;22.76;36.01;101258.27;107053;1267;25424;-57
2024/04/03 10:43:39;;;;;;;1.10;0.80;;;;;;;22.77;35.78;101257.64;107190;1260;23308;-57
2024/04/03 10:46:11;;;;;;;1.10;0.50;;;;;;;22.76;35.25;101259.11;106984;1270;25367;-56
2024/04/03 10:48:45;;;;;;;2.30;0.80;;;;;;;22.67;35.19;101259.34;107061;1264;22541;-57
2024/04/03 10:51:12;;;;;;;1.90;0.80;;;;;;;22.52;35.27;101259.16;107067;1267;25517;-57
2024/04/03 10:53:39;;;;;;;2.00;0.60;;;;;;;22.36;35.38;101259.47;106805;1269;25382;-57
2024/04/03 10:56:06;;;;;;;1.70;0.60;;;;;;;22.19;35.56;101250.69;106596;1271;382736;-57
2024/04/03 10:58:38;;;;;;;0.90;0.70;;;;;;;22.05;35.24;101245.77;107015;1267;23911;-57
2024/04/03 11:01:07;;;;;;;1.10;0.50;;;;;;;21.91;35.37;101245.35;107124;1267;22677;-57
2024/04/03 11:03:38;;;;;;;2.10;0.50;;;;;;;21.83;35.89;101241.98;106905;1267;25432;-57
2024/04/03 11:06:06;;;;;;;1.70;0.50;;;;;;;21.84;36.10;101240.15;107153;1270;24108;-57
2024/04/03 11:08:33;;;;;;;1.80;0.60;;;;;;;21.88;35.69;101237.58;107086;1267;25259;-58
2024/04/03 11:11:11;;;;;;;2.10;0.80;;;;;;;21.89;35.66;101234.05;107061;1270;23895;-57
2024/04/03 11:13:40;;;;;;;3.90;0.70;;;;;;;21.91;35.52;101234.64;107126;1267;22614;-57
2024/04/03 11:16:08;;;;;;;2.70;1.00;;;;;;;21.92;35.65;101227.64;106949;1268;25456;-57
2024/04/03 11:18:35;;;;;;;1.30;0.60;;;;;;;21.93;35.75;101225.27;107210;1267;22722;-56
2024/04/03 11:21:05;;;;;;;1.10;0.60;;;;;;;21.97;35.58;101220.63;107073;1268;25693;-57
2024/04/03 11:23:33;;;;;;;1.00;0.80;;;;;;;22.03;35.24;101213.04;106898;1271;25382;-57
2024/04/03 11:26:00;;;;;;;1.00;0.40;;;;;;;22.09;34.97;101212.45;107255;1267;25495;-56